createdAt,value
2019-05-25T00:01:38.245Z,11.89
2019-05-25T00:04:06.515Z,11.98
2019-05-25T00:06:34.808Z,11.99
2019-05-25T00:09:04.154Z,12.09
2019-05-25T00:11:32.421Z,11.90
2019-05-25T00:14:00.707Z,11.89
2019-05-25T00:16:29.251Z,12.00
2019-05-25T00:18:57.572Z,12.01
2019-05-25T00:21:25.856Z,12.07
2019-05-25T00:23:54.134Z,12.03
2019-05-25T00:26:22.401Z,12.06
2019-05-25T00:28:50.702Z,12.19
2019-05-25T00:31:18.990Z,12.03
2019-05-25T00:33:47.260Z,12.07
2019-05-25T00:36:15.549Z,12.01
2019-05-25T00:38:43.847Z,12.04
2019-05-25T00:41:12.124Z,12.06
2019-05-25T00:43:40.607Z,12.04
2019-05-25T00:46:08.903Z,12.03
2019-05-25T00:48:37.200Z,12.00
2019-05-25T00:51:05.492Z,11.85
2019-05-25T00:53:33.772Z,12.02
2019-05-25T00:56:02.040Z,12.10
2019-05-25T00:58:30.342Z,12.11
2019-05-25T01:00:58.649Z,12.15
2019-05-25T01:03:26.914Z,12.03
2019-05-25T01:05:55.182Z,12.11
2019-05-25T01:08:23.462Z,11.82
2019-05-25T01:10:51.745Z,11.91
2019-05-25T01:13:20.028Z,11.96
2019-05-25T01:15:48.302Z,11.96
2019-05-25T01:18:16.594Z,11.96
2019-05-25T01:20:45.135Z,11.95
2019-05-25T01:23:13.428Z,11.99
2019-05-25T01:25:42.234Z,11.99
2019-05-25T01:28:10.511Z,11.79
2019-05-25T01:30:38.791Z,11.74
2019-05-25T01:33:07.074Z,11.86
2019-05-25T01:35:35.347Z,11.88
2019-05-25T01:38:03.618Z,11.81
2019-05-25T01:40:31.980Z,11.82
2019-05-25T01:43:00.236Z,11.79
2019-05-25T01:45:28.536Z,11.83
2019-05-25T01:47:56.831Z,11.65
2019-05-25T01:50:25.096Z,11.71
2019-05-25T01:52:53.381Z,11.72
2019-05-25T01:55:21.665Z,11.63
2019-05-25T01:57:49.935Z,11.76
2019-05-25T02:00:19.687Z,11.66
2019-05-25T02:02:47.954Z,11.60
2019-05-25T02:05:16.911Z,11.60
2019-05-25T02:07:45.187Z,11.72
2019-05-25T02:10:13.529Z,11.73
2019-05-25T02:12:41.833Z,11.63
2019-05-25T02:15:11.159Z,11.71
2019-05-25T02:17:39.457Z,11.65
2019-05-25T02:20:09.421Z,11.63
2019-05-25T02:22:37.641Z,11.64
2019-05-25T02:25:17.822Z,11.62
2019-05-25T02:27:38.783Z,11.69
2019-05-25T02:30:07.567Z,11.69
2019-05-25T02:32:35.871Z,11.69
2019-05-25T02:35:05.932Z,11.50
2019-05-25T02:37:34.209Z,11.63
2019-05-25T02:40:02.666Z,11.65
2019-05-25T02:42:30.955Z,11.45
2019-05-25T02:44:59.303Z,11.53
2019-05-25T02:47:27.533Z,11.63
2019-05-25T02:49:55.817Z,11.71
2019-05-25T02:52:24.094Z,11.42
2019-05-25T02:54:52.370Z,11.59
2019-05-25T02:57:20.661Z,11.50
2019-05-25T02:59:48.941Z,11.46
2019-05-25T03:02:17.216Z,11.50
2019-05-25T03:04:45.503Z,11.60
2019-05-25T03:07:13.837Z,11.48
2019-05-25T03:09:43.095Z,11.55
2019-05-25T03:12:11.378Z,11.62
2019-05-25T03:14:39.652Z,11.58
2019-05-25T03:17:07.962Z,11.52
2019-05-25T03:19:36.263Z,11.50
2019-05-25T03:22:04.543Z,11.60
2019-05-25T03:24:32.809Z,11.74
2019-05-25T03:27:01.085Z,11.53
2019-05-25T03:29:29.352Z,11.57
2019-05-25T03:31:57.640Z,11.56
2019-05-25T03:34:25.941Z,11.51
2019-05-25T03:36:54.229Z,11.53
2019-05-25T03:39:22.506Z,11.50
2019-05-25T03:41:50.815Z,11.44
2019-05-25T03:44:19.112Z,11.53
2019-05-25T03:46:47.389Z,11.57
2019-05-25T03:49:15.953Z,11.65
2019-05-25T03:51:44.227Z,11.67
2019-05-25T03:54:12.510Z,11.55
2019-05-25T03:56:40.769Z,11.40
2019-05-25T03:59:09.045Z,11.46
2019-05-25T04:01:37.323Z,11.50
2019-05-25T04:04:05.598Z,11.55
2019-05-25T04:06:33.879Z,11.46
2019-05-25T04:09:02.164Z,11.50
2019-05-25T04:11:30.428Z,11.63
2019-05-25T04:13:59.111Z,11.59
2019-05-25T04:16:27.381Z,11.41
2019-05-25T04:18:55.663Z,11.49
2019-05-25T04:21:24.021Z,11.56
2019-05-25T04:23:52.318Z,11.63
2019-05-25T04:26:22.770Z,11.69
2019-05-25T04:28:50.585Z,11.64
2019-05-25T04:31:18.863Z,11.63
2019-05-25T04:33:47.195Z,11.58
2019-05-25T04:36:15.481Z,11.66
2019-05-25T04:38:43.839Z,11.64
2019-05-25T04:41:12.127Z,11.65
2019-05-25T04:43:40.835Z,11.72
2019-05-25T04:46:09.115Z,11.69
2019-05-25T04:48:37.395Z,11.67
2019-05-25T04:51:05.685Z,11.67
2019-05-25T04:53:33.980Z,11.68
2019-05-25T04:56:02.281Z,11.83
2019-05-25T04:58:30.562Z,11.86
2019-05-25T05:00:58.868Z,11.79
2019-05-25T05:03:27.161Z,11.79
2019-05-25T05:05:55.440Z,11.78
2019-05-25T05:08:23.746Z,11.70
2019-05-25T05:10:52.009Z,11.76
2019-05-25T05:13:20.282Z,11.58
2019-05-25T05:15:48.550Z,11.60
2019-05-25T05:18:16.833Z,11.56
2019-05-25T05:20:45.099Z,11.72
2019-05-25T05:23:13.374Z,11.72
2019-05-25T05:25:41.655Z,11.89
2019-05-25T05:28:09.950Z,11.86
2019-05-25T05:30:38.222Z,11.70
2019-05-25T05:33:06.641Z,11.74
2019-05-25T05:35:38.678Z,11.68
2019-05-25T05:38:06.240Z,11.76
2019-05-25T05:40:36.128Z,11.83
2019-05-25T05:43:07.586Z,11.95
2019-05-25T05:45:36.507Z,12.00
2019-05-25T05:48:04.792Z,11.94
2019-05-25T05:50:34.730Z,11.95
2019-05-25T05:53:03.654Z,12.10
2019-05-25T05:55:32.333Z,12.06
2019-05-25T05:58:02.302Z,12.07
2019-05-25T06:00:30.663Z,12.03
2019-05-25T06:02:59.092Z,12.19
2019-05-25T06:05:27.363Z,12.28
2019-05-25T06:07:55.628Z,12.43
2019-05-25T06:10:24.178Z,12.24
2019-05-25T06:12:52.452Z,12.05
2019-05-25T06:15:20.735Z,12.06
2019-05-25T06:17:49.006Z,12.18
2019-05-25T06:20:17.286Z,12.09
2019-05-25T06:22:45.581Z,12.12
2019-05-25T06:25:13.961Z,12.35
2019-05-25T06:27:42.213Z,12.48
2019-05-25T06:30:10.735Z,12.46
2019-05-25T06:32:41.911Z,12.41
2019-05-25T06:35:10.531Z,12.52
2019-05-25T06:37:38.789Z,12.46
2019-05-25T06:40:08.620Z,12.48
2019-05-25T06:42:36.915Z,12.54
2019-05-25T06:45:07.293Z,12.42
2019-05-25T06:47:35.594Z,12.41
2019-05-25T06:50:08.188Z,12.35
2019-05-25T06:52:36.449Z,12.38
2019-05-25T06:55:06.466Z,12.50
2019-05-25T06:57:43.204Z,12.38
2019-05-25T07:00:09.333Z,12.43
2019-05-25T07:02:37.605Z,12.42
2019-05-25T07:05:07.222Z,12.16
2019-05-25T07:07:35.490Z,12.26
2019-05-25T07:10:05.902Z,12.45
2019-05-25T07:12:34.168Z,12.24
2019-05-25T07:15:02.477Z,12.28
2019-05-25T07:17:30.742Z,12.41
2019-05-25T07:19:59.006Z,12.29
2019-05-25T07:22:27.284Z,12.31
2019-05-25T07:24:55.597Z,12.33
2019-05-25T07:27:23.866Z,12.48
2019-05-25T07:29:52.144Z,12.54
2019-05-25T07:32:20.443Z,12.53
2019-05-25T07:34:48.794Z,12.48
2019-05-25T07:37:17.076Z,12.61
2019-05-25T07:39:45.374Z,12.85
2019-05-25T07:42:13.654Z,13.00
2019-05-25T07:44:41.919Z,13.14
2019-05-25T07:47:10.226Z,13.32
2019-05-25T07:49:38.491Z,13.41
2019-05-25T07:52:06.779Z,13.35
2019-05-25T07:54:35.065Z,13.52
2019-05-25T07:57:03.356Z,13.60
2019-05-25T07:59:31.705Z,13.62
2019-05-25T08:01:59.975Z,13.36
2019-05-25T08:04:28.243Z,13.31
2019-05-25T08:06:56.532Z,13.49
2019-05-25T08:09:24.803Z,13.58
2019-05-25T08:11:53.076Z,13.35
2019-05-25T08:14:21.345Z,13.40
2019-05-25T08:16:49.625Z,13.27
2019-05-25T08:19:17.911Z,13.37
2019-05-25T08:21:46.187Z,13.44
2019-05-25T08:24:14.471Z,13.20
2019-05-25T08:26:42.745Z,13.03
2019-05-25T08:29:11.037Z,12.82
2019-05-25T08:31:39.306Z,12.92
2019-05-25T08:34:07.598Z,13.07
2019-05-25T08:36:35.897Z,13.02
2019-05-25T08:39:05.787Z,12.99
2019-05-25T08:41:34.066Z,13.09
2019-05-25T08:44:04.549Z,12.85
2019-05-25T08:46:32.335Z,13.03
2019-05-25T08:49:00.617Z,13.16
2019-05-25T08:51:28.897Z,13.32
2019-05-25T08:53:57.193Z,13.41
2019-05-25T08:56:25.490Z,13.40
2019-05-25T08:58:55.647Z,13.34
2019-05-25T09:01:24.107Z,13.20
2019-05-25T09:03:52.381Z,13.17
2019-05-25T09:06:20.664Z,13.23
2019-05-25T09:08:48.937Z,13.11
2019-05-25T09:11:17.219Z,13.17
2019-05-25T09:13:45.489Z,13.14
2019-05-25T09:16:13.771Z,13.27
2019-05-25T09:18:42.097Z,13.43
2019-05-25T09:21:10.402Z,13.65
2019-05-25T09:23:39.294Z,13.83
2019-05-25T09:26:07.575Z,14.01
2019-05-25T09:28:35.856Z,14.16
2019-05-25T09:31:04.141Z,13.72
2019-05-25T09:33:32.425Z,13.74
2019-05-25T09:36:00.724Z,13.92
2019-05-25T09:38:28.998Z,13.92
2019-05-25T09:40:57.270Z,13.99
2019-05-25T09:43:25.564Z,13.97
2019-05-25T09:45:53.831Z,13.94
2019-05-25T09:48:22.103Z,13.64
2019-05-25T09:50:50.393Z,13.40
2019-05-25T09:53:18.681Z,13.69
2019-05-25T09:55:46.958Z,13.62
2019-05-25T09:58:15.238Z,13.67
2019-05-25T10:00:43.524Z,13.71
2019-05-25T10:03:11.806Z,13.83
2019-05-25T10:05:40.170Z,13.79
2019-05-25T10:08:08.445Z,14.01
2019-05-25T10:10:36.721Z,14.22
2019-05-25T10:13:04.995Z,14.08
2019-05-25T10:15:33.279Z,13.78
2019-05-25T10:18:01.560Z,14.02
2019-05-25T10:20:29.840Z,14.10
2019-05-25T10:22:58.111Z,13.98
2019-05-25T10:25:26.400Z,14.22
2019-05-25T10:27:54.690Z,14.36
2019-05-25T10:30:22.954Z,14.46
2019-05-25T10:32:51.233Z,14.70
2019-05-25T10:35:19.533Z,14.92
2019-05-25T10:37:47.822Z,14.59
2019-05-25T10:40:16.657Z,14.38
2019-05-25T10:42:44.952Z,14.13
2019-05-25T10:45:14.581Z,14.24
2019-05-25T10:47:42.861Z,14.30
2019-05-25T10:50:11.375Z,14.57
2019-05-25T10:52:39.651Z,15.15
2019-05-25T10:55:09.574Z,15.47
2019-05-25T10:57:38.378Z,15.49
2019-05-25T11:00:10.981Z,15.33
2019-05-25T11:02:39.342Z,15.34
2019-05-25T11:05:10.735Z,15.12
2019-05-25T11:07:39.078Z,14.87
2019-05-25T11:10:08.334Z,14.78
2019-05-25T11:12:36.608Z,14.72
2019-05-25T11:15:07.686Z,14.83
2019-05-25T11:17:35.958Z,14.82
2019-05-25T11:20:08.723Z,14.79
2019-05-25T11:22:37.030Z,14.66
2019-05-25T11:25:08.742Z,14.68
2019-05-25T11:27:37.011Z,14.36
2019-05-25T11:30:09.414Z,14.54
2019-05-25T11:32:36.408Z,14.76
2019-05-25T11:35:05.631Z,15.12
2019-05-25T11:37:33.925Z,15.25
2019-05-25T11:40:02.213Z,14.99
2019-05-25T11:42:30.499Z,15.12
2019-05-25T11:44:58.778Z,14.80
2019-05-25T11:47:27.084Z,15.08
2019-05-25T11:49:55.324Z,15.31
2019-05-25T11:52:23.607Z,15.05
2019-05-25T11:54:51.874Z,15.20
2019-05-25T11:57:20.155Z,15.16
2019-05-25T11:59:48.411Z,15.34
2019-05-25T12:02:16.689Z,15.55
2019-05-25T12:04:44.966Z,15.62
2019-05-25T12:07:13.247Z,15.37
2019-05-25T12:09:41.536Z,15.09
2019-05-25T12:12:09.828Z,15.50
2019-05-25T12:14:38.096Z,15.40
2019-05-25T12:17:06.368Z,15.69
2019-05-25T12:19:34.648Z,16.02
2019-05-25T12:22:02.926Z,16.06
2019-05-25T12:24:31.241Z,16.18
2019-05-25T12:26:59.499Z,16.22
2019-05-25T12:29:27.776Z,15.70
2019-05-25T12:32:03.962Z,15.38
2019-05-25T12:34:26.039Z,15.71
2019-05-25T12:36:54.314Z,15.37
2019-05-25T12:39:26.312Z,15.35
2019-05-25T12:41:52.610Z,15.73
2019-05-25T12:44:20.893Z,15.79
2019-05-25T12:46:49.165Z,15.30
2019-05-25T12:49:17.454Z,15.30
2019-05-25T12:51:45.745Z,15.24
2019-05-25T12:54:14.020Z,15.19
2019-05-25T12:56:42.306Z,15.04
2019-05-25T12:59:10.835Z,15.65
2019-05-25T13:01:39.106Z,16.07
2019-05-25T13:04:07.376Z,15.64
2019-05-25T13:06:35.657Z,15.60
2019-05-25T13:09:06.375Z,15.71
2019-05-25T13:11:34.646Z,15.63
2019-05-25T13:14:14.074Z,15.23
2019-05-25T13:16:33.559Z,15.26
2019-05-25T13:19:01.831Z,15.59
2019-05-25T13:21:30.111Z,15.91
2019-05-25T13:23:58.387Z,15.95
2019-05-25T13:26:26.674Z,15.78
2019-05-25T13:28:54.942Z,15.40
2019-05-25T13:31:23.774Z,15.21
2019-05-25T13:33:52.066Z,15.24
2019-05-25T13:36:20.333Z,14.95
2019-05-25T13:38:48.610Z,15.03
2019-05-25T13:41:16.903Z,15.14
2019-05-25T13:43:45.167Z,15.23
2019-05-25T13:46:13.449Z,15.23
2019-05-25T13:48:41.730Z,15.31
2019-05-25T13:51:09.988Z,15.41
2019-05-25T13:53:38.268Z,15.26
2019-05-25T13:56:06.544Z,15.28
2019-05-25T13:58:34.824Z,15.36
2019-05-25T14:01:03.110Z,14.85
2019-05-25T14:03:31.371Z,14.84
2019-05-25T14:05:59.695Z,14.71
2019-05-25T14:08:27.970Z,14.51
2019-05-25T14:10:56.254Z,14.32
2019-05-25T14:13:24.546Z,14.32
2019-05-25T14:16:06.245Z,14.51
2019-05-25T14:18:22.906Z,14.28
2019-05-25T14:20:51.173Z,14.46
2019-05-25T14:23:19.452Z,14.36
2019-05-25T14:25:47.727Z,14.34
2019-05-25T14:28:15.992Z,14.66
2019-05-25T14:30:44.292Z,14.88
2019-05-25T14:33:12.553Z,14.99
2019-05-25T14:35:41.113Z,15.26
2019-05-25T14:38:09.362Z,15.40
2019-05-25T14:40:37.631Z,15.35
2019-05-25T14:43:05.929Z,14.79
2019-05-25T14:45:34.225Z,15.18
2019-05-25T14:48:02.502Z,15.12
2019-05-25T14:50:30.810Z,14.94
2019-05-25T14:52:59.066Z,15.06
2019-05-25T14:55:27.351Z,15.17
2019-05-25T14:57:55.629Z,15.19
2019-05-25T15:00:23.910Z,15.12
2019-05-25T15:02:52.192Z,14.80
2019-05-25T15:05:21.248Z,14.77
2019-05-25T15:07:49.540Z,14.55
2019-05-25T15:10:17.805Z,14.59
2019-05-25T15:12:46.082Z,14.69
2019-05-25T15:15:14.530Z,14.72
2019-05-25T15:17:43.476Z,14.60
2019-05-25T15:20:12.121Z,14.78
2019-05-25T15:22:40.702Z,14.89
2019-05-25T15:25:09.442Z,14.69
2019-05-25T15:27:37.722Z,14.78
2019-05-25T15:30:06.444Z,14.45
2019-05-25T15:32:34.726Z,14.20
2019-05-25T15:35:03.359Z,14.11
2019-05-25T15:37:31.638Z,14.27
2019-05-25T15:39:59.912Z,14.23
2019-05-25T15:42:28.253Z,14.37
2019-05-25T15:44:56.527Z,14.23
2019-05-25T15:47:24.791Z,14.38
2019-05-25T15:49:53.136Z,14.53
2019-05-25T15:52:21.420Z,14.32
2019-05-25T15:54:49.705Z,14.01
2019-05-25T15:57:17.997Z,13.85
2019-05-25T15:59:46.274Z,13.89
2019-05-25T16:02:14.565Z,14.18
2019-05-25T16:04:42.869Z,14.33
2019-05-25T16:07:11.146Z,14.29
2019-05-25T16:09:39.428Z,14.32
2019-05-25T16:12:07.718Z,14.38
2019-05-25T16:14:35.996Z,14.30
2019-05-25T16:17:04.340Z,14.11
2019-05-25T16:19:32.718Z,14.06
2019-05-25T16:22:00.994Z,14.20
2019-05-25T16:24:29.258Z,14.18
2019-05-25T16:26:57.535Z,14.08
2019-05-25T16:29:25.821Z,13.83
2019-05-25T16:31:54.134Z,13.89
2019-05-25T16:34:22.401Z,13.82
2019-05-25T16:36:50.699Z,13.50
2019-05-25T16:39:18.987Z,13.41
2019-05-25T16:41:47.273Z,13.39
2019-05-25T16:44:15.553Z,13.32
2019-05-25T16:46:43.854Z,13.26
2019-05-25T16:49:12.112Z,13.48
2019-05-25T16:51:40.396Z,13.46
2019-05-25T16:54:08.731Z,13.34
2019-05-25T16:56:37.039Z,13.31
2019-05-25T16:59:05.402Z,13.34
2019-05-25T17:01:47.628Z,13.46
2019-05-25T17:04:03.802Z,13.34
2019-05-25T17:06:32.095Z,13.38
2019-05-25T17:09:01.908Z,13.41
2019-05-25T17:11:30.213Z,13.30
2019-05-25T17:13:58.485Z,13.36
2019-05-25T17:16:26.844Z,13.43
2019-05-25T17:18:55.055Z,13.31
2019-05-25T17:21:23.348Z,13.47
2019-05-25T17:23:51.622Z,13.62
2019-05-25T17:26:19.911Z,13.69
2019-05-25T17:28:48.167Z,13.59
2019-05-25T17:31:16.461Z,13.67
2019-05-25T17:33:46.551Z,13.63
2019-05-25T17:36:14.767Z,13.72
2019-05-25T17:38:43.036Z,13.76
2019-05-25T17:41:11.383Z,13.47
2019-05-25T17:43:40.718Z,13.46
2019-05-25T17:46:08.983Z,13.53
2019-05-25T17:48:37.255Z,13.11
2019-05-25T17:51:05.535Z,13.01
2019-05-25T17:53:33.817Z,12.89
2019-05-25T17:56:02.102Z,13.03
2019-05-25T17:58:30.363Z,13.01
2019-05-25T18:00:58.656Z,13.03
2019-05-25T18:03:26.938Z,13.17
2019-05-25T18:05:55.234Z,12.78
2019-05-25T18:08:23.584Z,12.54
2019-05-25T18:10:54.265Z,12.68
2019-05-25T18:13:21.933Z,12.91
2019-05-25T18:15:50.201Z,13.02
2019-05-25T18:18:18.478Z,13.02
2019-05-25T18:20:46.792Z,13.07
2019-05-25T18:23:15.045Z,12.89
2019-05-25T18:25:43.336Z,12.75
2019-05-25T18:28:11.603Z,12.88
2019-05-25T18:30:39.884Z,13.07
2019-05-25T18:33:08.153Z,12.91
2019-05-25T18:35:36.433Z,13.05
2019-05-25T18:38:04.713Z,12.97
2019-05-25T18:40:33.003Z,12.86
2019-05-25T18:43:01.270Z,12.74
2019-05-25T18:45:29.583Z,12.82
2019-05-25T18:47:57.894Z,12.85
2019-05-25T18:50:26.749Z,12.94
2019-05-25T18:52:55.013Z,12.91
2019-05-25T18:55:23.277Z,12.65
2019-05-25T18:57:51.552Z,12.43
2019-05-25T19:00:19.967Z,12.54
2019-05-25T19:02:48.244Z,12.52
2019-05-25T19:05:16.780Z,12.48
2019-05-25T19:07:45.537Z,12.41
2019-05-25T19:10:13.974Z,12.36
2019-05-25T19:12:42.260Z,12.35
2019-05-25T19:15:10.790Z,12.47
2019-05-25T19:17:39.137Z,12.39
2019-05-25T19:20:08.473Z,12.48
2019-05-25T19:22:37.135Z,12.41
2019-05-25T19:25:09.069Z,12.37
2019-05-25T19:27:37.344Z,12.41
2019-05-25T19:30:09.247Z,12.31
2019-05-25T19:32:37.518Z,12.40
2019-05-25T19:35:07.536Z,12.33
2019-05-25T19:37:35.798Z,12.37
2019-05-25T19:40:09.147Z,12.41
2019-05-25T19:42:37.787Z,12.50
2019-05-25T19:45:09.927Z,12.36
2019-05-25T19:47:38.306Z,12.24
2019-05-25T19:50:07.378Z,12.21
2019-05-25T19:52:35.686Z,12.30
2019-05-25T19:55:06.001Z,12.36
2019-05-25T19:57:34.510Z,12.30
2019-05-25T20:00:03.974Z,12.31
2019-05-25T20:02:32.265Z,12.22
2019-05-25T20:05:15.035Z,12.17
2019-05-25T20:07:30.549Z,11.94
2019-05-25T20:09:58.819Z,12.05
2019-05-25T20:12:27.095Z,11.98
2019-05-25T20:14:55.355Z,12.12
2019-05-25T20:17:23.630Z,12.13
2019-05-25T20:19:51.897Z,12.22
2019-05-25T20:22:20.186Z,12.12
2019-05-25T20:24:48.455Z,12.15
2019-05-25T20:27:16.725Z,12.25
2019-05-25T20:29:44.997Z,11.94
2019-05-25T20:32:13.272Z,11.92
2019-05-25T20:34:41.534Z,11.99
2019-05-25T20:37:09.824Z,11.96
2019-05-25T20:39:38.107Z,12.08
2019-05-25T20:42:06.446Z,11.93
2019-05-25T20:44:34.731Z,11.89
2019-05-25T20:47:03.008Z,11.86
2019-05-25T20:49:31.286Z,11.87
2019-05-25T20:51:59.632Z,11.79
2019-05-25T20:54:27.905Z,11.82
2019-05-25T20:56:56.191Z,11.68
2019-05-25T20:59:24.470Z,11.73
2019-05-25T21:01:52.746Z,11.70
2019-05-25T21:04:21.007Z,11.69
2019-05-25T21:06:49.293Z,11.68
2019-05-25T21:09:17.559Z,11.62
2019-05-25T21:11:45.852Z,11.50
2019-05-25T21:14:14.131Z,11.46
2019-05-25T21:16:42.408Z,11.34
2019-05-25T21:19:10.670Z,11.26
2019-05-25T21:21:38.952Z,11.20
2019-05-25T21:24:07.301Z,11.09
2019-05-25T21:26:35.567Z,11.05
2019-05-25T21:29:03.832Z,10.98
2019-05-25T21:31:32.106Z,10.96
2019-05-25T21:34:00.384Z,10.99
2019-05-25T21:36:28.747Z,10.99
2019-05-25T21:38:56.963Z,10.89
2019-05-25T21:41:25.241Z,10.89
2019-05-25T21:43:53.501Z,10.76
2019-05-25T21:46:21.771Z,10.67
2019-05-25T21:48:51.025Z,10.67
2019-05-25T21:51:20.991Z,10.68
2019-05-25T21:53:49.276Z,10.68
2019-05-25T21:56:17.540Z,10.66
2019-05-25T21:58:45.823Z,10.64
2019-05-25T22:01:14.459Z,10.66
2019-05-25T22:03:42.734Z,10.64
2019-05-25T22:06:23.958Z,10.74
2019-05-25T22:08:41.005Z,10.79
2019-05-25T22:11:09.279Z,10.83
2019-05-25T22:13:38.063Z,10.81
2019-05-25T22:16:06.369Z,10.85
2019-05-25T22:18:34.635Z,10.77
2019-05-25T22:21:02.904Z,10.71
2019-05-25T22:23:31.188Z,10.72
2019-05-25T22:25:59.466Z,10.69
2019-05-25T22:28:41.914Z,10.63
2019-05-25T22:30:57.730Z,10.58
2019-05-25T22:33:26.009Z,10.55
2019-05-25T22:35:54.333Z,10.46
2019-05-25T22:38:22.627Z,10.35
2019-05-25T22:40:50.896Z,10.22
2019-05-25T22:43:19.166Z,10.19
2019-05-25T22:45:47.443Z,10.18
2019-05-25T22:48:15.714Z,10.12
2019-05-25T22:50:44.167Z,10.20
2019-05-25T22:53:12.442Z,10.22
2019-05-25T22:55:40.715Z,10.12
2019-05-25T22:58:08.975Z,10.10
2019-05-25T23:00:37.252Z,10.09
2019-05-25T23:03:05.522Z,10.07
2019-05-25T23:05:33.804Z,10.06
2019-05-25T23:08:02.058Z,10.00
2019-05-25T23:10:30.339Z,9.97
2019-05-25T23:12:58.597Z,9.89
2019-05-25T23:15:26.863Z,9.97
2019-05-25T23:17:55.128Z,9.94
2019-05-25T23:20:23.391Z,9.94
2019-05-25T23:22:51.670Z,9.92
2019-05-25T23:25:19.948Z,9.90
2019-05-25T23:27:48.231Z,9.91
2019-05-25T23:30:16.662Z,9.86
2019-05-25T23:32:44.920Z,9.89
2019-05-25T23:35:13.811Z,9.92
2019-05-25T23:37:42.067Z,9.91
2019-05-25T23:40:10.573Z,9.90
2019-05-25T23:42:38.831Z,9.87
2019-05-25T23:45:07.428Z,9.85
2019-05-25T23:47:36.166Z,9.73
2019-05-25T23:50:07.035Z,9.80
2019-05-25T23:52:35.297Z,9.75
2019-05-25T23:55:05.315Z,9.75
2019-05-25T23:57:33.774Z,9.80
